createdAt,value
2019-04-10T00:01:15.182Z,65.80
2019-04-10T00:03:50.433Z,65.60
2019-04-10T00:06:26.531Z,65.90
2019-04-10T00:09:02.984Z,66.10
2019-04-10T00:11:39.748Z,66.70
2019-04-10T00:14:14.764Z,67.00
2019-04-10T00:16:52.236Z,67.00
2019-04-10T00:19:28.687Z,67.10
2019-04-10T00:22:04.273Z,66.90
2019-04-10T00:24:39.901Z,67.40
2019-04-10T00:27:17.155Z,67.50
2019-04-10T00:29:56.482Z,67.50
2019-04-10T00:32:32.162Z,67.90
2019-04-10T00:35:08.348Z,68.60
2019-04-10T00:37:43.411Z,68.90
2019-04-10T00:40:19.297Z,69.20
2019-04-10T00:42:56.940Z,69.40
2019-04-10T00:45:31.634Z,69.80
2019-04-10T00:48:07.787Z,69.80
2019-04-10T00:50:44.606Z,70.30
2019-04-10T00:53:21.906Z,70.70
2019-04-10T00:55:56.967Z,70.90
2019-04-10T00:58:35.240Z,71.00
2019-04-10T01:01:10.487Z,71.50
2019-04-10T01:03:48.045Z,71.10
2019-04-10T01:06:22.235Z,70.90
2019-04-10T01:08:59.192Z,72.00
2019-04-10T01:11:35.383Z,71.80
2019-04-10T01:14:11.438Z,71.80
2019-04-10T01:16:47.351Z,72.20
2019-04-10T01:19:23.871Z,71.80
2019-04-10T01:21:59.331Z,73.00
2019-04-10T01:24:35.486Z,72.80
2019-04-10T01:27:11.581Z,73.30
2019-04-10T01:29:46.966Z,73.30
2019-04-10T01:32:22.015Z,73.50
2019-04-10T01:34:58.729Z,73.30
2019-04-10T01:37:46.651Z,73.70
2019-04-10T01:40:12.984Z,73.70
2019-04-10T01:43:00.793Z,73.70
2019-04-10T01:45:25.154Z,74.00
2019-04-10T01:48:00.405Z,74.00
2019-04-10T01:50:35.446Z,74.50
2019-04-10T01:53:11.272Z,74.30
2019-04-10T01:55:47.091Z,74.60
2019-04-10T01:58:23.959Z,74.80
2019-04-10T02:01:01.744Z,75.20
2019-04-10T02:03:37.025Z,75.60
2019-04-10T02:06:13.946Z,75.50
2019-04-10T02:08:49.938Z,76.20
2019-04-10T02:11:25.938Z,75.80
2019-04-10T02:14:02.143Z,76.10
2019-04-10T02:16:37.152Z,76.40
2019-04-10T02:19:12.240Z,76.60
2019-04-10T02:21:49.597Z,77.10
2019-04-10T02:24:25.198Z,77.00
2019-04-10T02:27:00.491Z,76.80
2019-04-10T02:29:35.723Z,76.60
2019-04-10T02:32:12.036Z,76.70
2019-04-10T02:34:48.936Z,76.80
2019-04-10T02:37:25.129Z,76.90
2019-04-10T02:40:04.598Z,76.60
2019-04-10T02:42:38.779Z,76.90
2019-04-10T02:45:14.823Z,77.00
2019-04-10T02:47:52.754Z,76.70
2019-04-10T02:50:29.371Z,76.60
2019-04-10T02:53:05.528Z,76.70
2019-04-10T02:55:40.941Z,76.80
2019-04-10T02:58:16.143Z,76.90
2019-04-10T03:00:54.242Z,76.80
2019-04-10T03:03:29.829Z,77.10
2019-04-10T03:06:05.306Z,76.80
2019-04-10T03:08:58.719Z,76.40
2019-04-10T03:11:20.106Z,76.40
2019-04-10T03:13:56.521Z,76.30
2019-04-10T03:16:31.614Z,76.10
2019-04-10T03:19:07.454Z,76.10
2019-04-10T03:21:43.022Z,75.90
2019-04-10T03:24:19.109Z,75.90
2019-04-10T03:26:54.782Z,75.90
2019-04-10T03:29:35.890Z,75.80
2019-04-10T03:32:35.535Z,75.50
2019-04-10T03:35:25.394Z,75.60
2019-04-10T03:38:01.291Z,75.50
2019-04-10T03:40:37.581Z,75.50
2019-04-10T03:43:13.889Z,75.50
2019-04-10T03:45:49.118Z,75.30
2019-04-10T03:48:25.098Z,76.10
2019-04-10T03:51:00.495Z,76.30
2019-04-10T03:53:36.166Z,76.70
2019-04-10T03:56:11.759Z,77.20
2019-04-10T03:58:47.505Z,77.50
2019-04-10T04:01:22.989Z,77.60
2019-04-10T04:03:59.321Z,77.70
2019-04-10T04:06:35.470Z,77.50
2019-04-10T04:09:13.158Z,77.50
2019-04-10T04:11:48.311Z,77.40
2019-04-10T04:14:24.203Z,77.00
2019-04-10T04:16:59.784Z,77.00
2019-04-10T04:19:35.895Z,76.80
2019-04-10T04:22:11.237Z,76.60
2019-04-10T04:24:46.294Z,76.50
2019-04-10T04:27:21.594Z,76.20
2019-04-10T04:29:57.442Z,75.80
2019-04-10T04:32:33.477Z,75.60
2019-04-10T04:35:09.066Z,75.20
2019-04-10T04:37:44.633Z,74.40
2019-04-10T04:40:26.323Z,73.50
2019-04-10T04:43:01.334Z,72.50
2019-04-10T04:45:36.350Z,72.10
2019-04-10T04:48:11.741Z,71.60
2019-04-10T04:50:46.776Z,70.70
2019-04-10T04:53:22.114Z,70.10
2019-04-10T04:55:57.602Z,68.80
2019-04-10T04:58:32.689Z,69.30
2019-04-10T05:01:07.729Z,69.00
2019-04-10T05:03:42.743Z,68.60
2019-04-10T05:06:18.136Z,68.70
2019-04-10T05:08:54.801Z,68.40
2019-04-10T05:11:30.692Z,68.40
2019-04-10T05:14:06.732Z,68.50
2019-04-10T05:16:42.409Z,68.50
2019-04-10T05:19:18.904Z,67.80
2019-04-10T05:21:54.153Z,67.70
2019-04-10T05:24:30.168Z,67.60
2019-04-10T05:27:05.897Z,67.30
2019-04-10T05:29:40.962Z,67.10
2019-04-10T05:32:16.009Z,66.70
2019-04-10T05:34:52.373Z,66.00
2019-04-10T05:37:28.333Z,65.40
2019-04-10T05:40:03.817Z,64.60
2019-04-10T05:42:39.517Z,63.60
2019-04-10T05:45:17.043Z,63.50
2019-04-10T05:47:52.846Z,61.80
2019-04-10T05:50:30.815Z,61.50
2019-04-10T05:53:07.837Z,61.40
2019-04-10T05:55:43.166Z,60.10
2019-04-10T05:58:21.777Z,59.90
2019-04-10T06:00:58.930Z,59.70
2019-04-10T06:03:49.084Z,59.70
2019-04-10T06:06:25.231Z,58.60
2019-04-10T06:09:02.567Z,58.00
2019-04-10T06:11:39.839Z,58.50
2019-04-10T06:14:24.206Z,57.30
2019-04-10T06:17:02.507Z,57.00
2019-04-10T06:19:36.458Z,57.20
2019-04-10T06:22:12.810Z,57.40
2019-04-10T06:24:48.779Z,56.70
2019-04-10T06:27:24.223Z,56.50
2019-04-10T06:29:59.484Z,55.40
2019-04-10T06:32:34.671Z,54.90
2019-04-10T06:35:11.176Z,54.30
2019-04-10T06:37:46.496Z,54.30
2019-04-10T06:40:27.121Z,53.80
2019-04-10T06:43:00.932Z,53.10
2019-04-10T06:45:36.231Z,52.30
2019-04-10T06:48:11.320Z,52.20
2019-04-10T06:50:47.367Z,51.70
2019-04-10T06:53:22.988Z,52.20
2019-04-10T06:55:59.010Z,50.80
2019-04-10T06:58:36.016Z,50.40
2019-04-10T07:01:12.523Z,50.10
2019-04-10T07:03:56.526Z,49.50
2019-04-10T07:06:39.601Z,49.50
2019-04-10T07:09:05.589Z,49.90
2019-04-10T07:11:42.870Z,47.70
2019-04-10T07:14:18.359Z,44.60
2019-04-10T07:16:54.907Z,43.90
2019-04-10T07:19:32.306Z,43.40
2019-04-10T07:22:12.076Z,43.20
2019-04-10T07:24:46.046Z,43.70
2019-04-10T07:27:21.844Z,42.20
2019-04-10T07:29:59.429Z,41.40
2019-04-10T07:32:34.016Z,42.00
2019-04-10T07:35:14.324Z,40.70
2019-04-10T07:37:51.614Z,40.80
2019-04-10T07:40:26.546Z,39.90
2019-04-10T07:43:02.134Z,39.70
2019-04-10T07:45:37.566Z,40.20
2019-04-10T07:48:13.596Z,40.10
2019-04-10T07:50:49.990Z,40.80
2019-04-10T07:53:25.332Z,40.60
2019-04-10T07:56:06.159Z,40.70
2019-04-10T07:58:37.749Z,41.40
2019-04-10T08:01:13.860Z,40.80
2019-04-10T08:03:52.193Z,36.70
2019-04-10T08:06:30.106Z,34.80
2019-04-10T08:09:08.961Z,34.50
2019-04-10T08:11:44.785Z,35.70
2019-04-10T08:14:20.097Z,36.00
2019-04-10T08:16:55.336Z,37.00
2019-04-10T08:19:30.465Z,37.70
2019-04-10T08:22:06.187Z,37.90
2019-04-10T08:24:45.852Z,38.90
2019-04-10T08:27:21.361Z,40.20
2019-04-10T08:29:57.180Z,39.50
2019-04-10T08:32:32.283Z,37.50
2019-04-10T08:35:09.453Z,36.70
2019-04-10T08:37:45.292Z,36.40
2019-04-10T08:40:21.153Z,35.90
2019-04-10T08:42:56.360Z,34.80
2019-04-10T08:45:40.316Z,33.60
2019-04-10T08:48:08.139Z,31.30
2019-04-10T08:50:44.333Z,29.40
2019-04-10T08:53:20.109Z,27.60
2019-04-10T08:55:55.379Z,26.00
2019-04-10T08:58:31.001Z,23.90
2019-04-10T09:04:46.840Z,25.50
2019-04-10T09:07:22.204Z,26.80
2019-04-10T09:09:58.281Z,27.40
2019-04-10T09:12:34.400Z,27.10
2019-04-10T09:15:09.963Z,26.80
2019-04-10T09:17:51.468Z,27.40
2019-04-10T09:20:28.610Z,28.20
2019-04-10T09:23:18.709Z,25.80
2019-04-10T09:25:44.358Z,25.60
2019-04-10T09:28:20.337Z,25.70
2019-04-10T09:30:55.434Z,25.20
2019-04-10T09:33:35.632Z,25.00
2019-04-10T09:36:11.263Z,24.50
2019-04-10T09:38:47.315Z,23.90
2019-04-10T09:41:22.853Z,23.50
2019-04-10T09:43:58.321Z,23.60
2019-04-10T09:46:35.986Z,23.30
2019-04-10T09:49:12.380Z,24.40
2019-04-10T09:51:48.205Z,25.00
2019-04-10T09:54:25.929Z,24.90
2019-04-10T09:57:03.330Z,24.70
2019-04-10T09:59:40.102Z,24.50
2019-04-10T10:02:20.031Z,23.70
2019-04-10T10:04:57.826Z,23.40
2019-04-10T10:07:34.968Z,23.30
2019-04-10T10:10:10.886Z,22.50
2019-04-10T10:12:50.519Z,22.10
2019-04-10T10:15:27.418Z,22.30
2019-04-10T10:18:03.398Z,21.60
2019-04-10T10:20:43.958Z,20.20
2019-04-10T10:23:20.115Z,20.10
2019-04-10T10:25:58.330Z,20.90
2019-04-10T10:28:39.303Z,21.00
2019-04-10T10:31:20.140Z,20.90
2019-04-10T10:34:02.018Z,20.30
2019-04-10T10:36:46.223Z,20.70
2019-04-10T10:39:23.557Z,20.90
2019-04-10T10:42:05.385Z,20.50
2019-04-10T10:44:51.406Z,21.10
2019-04-10T10:47:29.050Z,23.30
2019-04-10T10:50:06.642Z,25.20
2019-04-10T10:52:43.608Z,27.20
2019-04-10T10:55:19.365Z,28.90
2019-04-10T10:57:55.756Z,28.70
2019-04-10T11:00:31.442Z,28.10
2019-04-10T11:03:07.751Z,28.60
2019-04-10T11:05:43.091Z,29.30
2019-04-10T11:08:19.136Z,30.00
2019-04-10T11:10:56.326Z,30.00
2019-04-10T11:13:33.208Z,30.30
2019-04-10T11:16:09.347Z,30.10
2019-04-10T11:18:44.459Z,29.80
2019-04-10T11:21:20.729Z,31.50
2019-04-10T11:23:56.038Z,31.00
2019-04-10T11:26:31.102Z,32.00
2019-04-10T11:29:08.026Z,30.70
2019-04-10T11:31:43.469Z,28.80
2019-04-10T11:34:18.924Z,26.50
2019-04-10T11:37:21.555Z,23.80
2019-04-10T11:39:43.239Z,23.40
2019-04-10T11:42:15.577Z,25.20
2019-04-10T11:44:51.710Z,26.30
2019-04-10T11:47:29.159Z,26.00
2019-04-10T11:50:12.977Z,24.30
2019-04-10T11:52:52.219Z,23.10
2019-04-10T11:55:26.668Z,21.70
2019-04-10T11:58:00.103Z,21.20
2019-04-10T12:00:50.751Z,21.10
2019-04-10T12:03:24.049Z,20.00
2019-04-10T12:05:59.883Z,18.80
2019-04-10T12:09:04.203Z,19.20
2019-04-10T12:11:15.518Z,21.40
2019-04-10T12:13:50.515Z,23.00
2019-04-10T12:16:29.974Z,23.60
2019-04-10T12:19:05.011Z,22.90
2019-04-10T12:21:42.046Z,21.60
2019-04-10T12:24:21.789Z,20.30
2019-04-10T12:26:58.254Z,18.80
2019-04-10T12:29:35.496Z,18.20
2019-04-10T12:32:17.277Z,17.80
2019-04-10T12:34:56.613Z,19.10
2019-04-10T12:37:32.783Z,20.00
2019-04-10T12:40:09.743Z,21.80
2019-04-10T12:42:46.161Z,22.70
2019-04-10T12:45:22.251Z,22.00
2019-04-10T12:47:58.582Z,23.20
2019-04-10T12:50:33.852Z,24.00
2019-04-10T12:53:09.360Z,25.40
2019-04-10T12:55:45.810Z,25.60
2019-04-10T12:58:22.412Z,26.00
2019-04-10T13:00:58.385Z,24.70
2019-04-10T13:03:36.378Z,22.70
2019-04-10T13:06:13.829Z,20.90
2019-04-10T14:19:06.218Z,20.37
2019-04-10T14:21:41.624Z,19.87
2019-04-10T14:24:17.930Z,20.36
2019-04-10T14:27:12.182Z,21.03
2019-04-10T14:29:49.144Z,20.65
2019-04-10T14:32:26.855Z,20.32
2019-04-10T14:35:03.039Z,21.48
2019-04-10T14:37:38.742Z,22.80
2019-04-10T14:40:14.439Z,24.03
2019-04-10T14:42:55.676Z,21.53
2019-04-10T14:45:31.100Z,22.19
2019-04-10T14:48:07.816Z,23.63
2019-04-10T14:50:44.228Z,24.36
2019-04-10T14:53:21.016Z,24.41
2019-04-10T14:55:57.654Z,25.65
2019-04-10T14:58:34.044Z,24.56
2019-04-10T15:01:09.990Z,22.95
2019-04-10T15:03:46.960Z,22.95
2019-04-10T15:06:25.840Z,21.89
2019-04-10T15:09:01.307Z,21.65
2019-04-10T15:11:38.491Z,23.60
2019-04-10T15:14:15.185Z,24.93
2019-04-10T15:16:57.640Z,26.39
2019-04-10T15:19:27.508Z,27.77
2019-04-10T15:22:03.243Z,28.91
2019-04-10T15:24:39.727Z,29.58
2019-04-10T15:27:15.312Z,30.10
2019-04-10T15:29:50.463Z,30.86
2019-04-10T15:32:25.493Z,29.82
2019-04-10T15:35:02.230Z,29.92
2019-04-10T15:37:37.530Z,29.73
2019-04-10T15:40:19.747Z,29.44
2019-04-10T15:42:50.752Z,29.28
2019-04-10T15:45:26.705Z,29.76
2019-04-10T15:48:03.134Z,29.73
2019-04-10T15:50:39.353Z,29.39
2019-04-10T15:53:15.932Z,29.92
2019-04-10T15:55:52.309Z,28.45
2019-04-10T15:58:27.774Z,26.17
2019-04-10T16:01:05.609Z,24.29
2019-04-10T16:03:40.842Z,24.08
2019-04-10T16:06:15.969Z,22.79
2019-04-10T16:08:52.330Z,22.47
2019-04-10T16:11:42.093Z,22.16
2019-04-10T16:14:22.814Z,23.22
2019-04-10T16:17:05.099Z,24.48
2019-04-10T16:19:42.957Z,23.62
2019-04-10T16:22:21.284Z,21.94
2019-04-10T16:24:59.459Z,22.21
2019-04-10T16:27:34.554Z,22.80
2019-04-10T16:30:15.922Z,22.93
2019-04-10T16:32:52.325Z,21.43
2019-04-10T16:35:27.477Z,22.13
2019-04-10T16:38:05.672Z,22.28
2019-04-10T16:40:42.183Z,21.76
2019-04-10T16:43:17.519Z,23.13
2019-04-10T16:45:53.012Z,24.21
2019-04-10T16:48:28.323Z,25.51
2019-04-10T16:51:03.725Z,27.33
2019-04-10T16:53:38.806Z,28.34
2019-04-10T16:56:13.832Z,29.33
2019-04-10T16:58:49.994Z,29.78
2019-04-10T17:01:25.042Z,30.40
2019-04-10T17:04:00.806Z,30.90
2019-04-10T17:06:36.537Z,30.91
2019-04-10T17:09:16.570Z,31.26
2019-04-10T17:11:56.363Z,31.10
2019-04-10T17:14:31.853Z,31.43
2019-04-10T17:17:06.917Z,31.77
2019-04-10T17:19:48.894Z,32.16
2019-04-10T17:22:30.778Z,32.35
2019-04-10T17:24:55.851Z,33.06
2019-04-10T17:27:32.011Z,33.08
2019-04-10T17:30:09.569Z,33.28
2019-04-10T17:32:45.183Z,33.18
2019-04-10T17:35:21.575Z,33.22
2019-04-10T17:37:58.162Z,33.09
2019-04-10T17:40:40.609Z,32.61
2019-04-10T17:43:10.610Z,32.82
2019-04-10T17:45:46.853Z,32.97
2019-04-10T17:48:22.098Z,32.56
2019-04-10T17:50:57.494Z,32.66
2019-04-10T17:53:33.604Z,32.79
2019-04-10T17:56:08.774Z,32.95
2019-04-10T17:58:43.780Z,32.99
2019-04-10T18:01:20.916Z,33.39
2019-04-10T18:03:59.002Z,33.38
2019-04-10T18:06:33.457Z,33.80
2019-04-10T18:09:10.235Z,34.41
2019-04-10T18:11:47.985Z,34.50
2019-04-10T18:14:23.244Z,34.76
2019-04-10T18:16:58.304Z,34.81
2019-04-10T18:19:34.378Z,34.86
2019-04-10T18:22:10.374Z,35.04
2019-04-10T18:24:45.486Z,35.72
2019-04-10T18:27:20.530Z,35.98
2019-04-10T18:29:55.575Z,36.44
2019-04-10T18:32:31.720Z,36.07
2019-04-10T18:35:08.775Z,36.21
2019-04-10T18:37:44.617Z,36.42
2019-04-10T18:40:19.764Z,36.85
2019-04-10T18:42:56.583Z,36.99
2019-04-10T18:45:31.875Z,36.86
2019-04-10T18:48:06.932Z,36.97
2019-04-10T18:50:43.494Z,37.27
2019-04-10T18:53:19.309Z,37.43
2019-04-10T18:55:54.727Z,37.17
2019-04-10T18:58:33.883Z,37.27
2019-04-10T19:01:21.056Z,37.10
2019-04-10T19:04:02.621Z,37.25
2019-04-10T19:06:44.846Z,37.40
2019-04-10T19:09:26.076Z,37.65
2019-04-10T19:12:04.408Z,37.94
2019-04-10T19:14:40.734Z,38.03
2019-04-10T19:17:17.017Z,38.32
2019-04-10T19:19:52.880Z,38.51
2019-04-10T19:22:32.472Z,38.79
2019-04-10T19:25:10.539Z,39.05
2019-04-10T19:27:50.575Z,39.44
2019-04-10T19:30:41.805Z,39.63
2019-04-10T19:33:18.283Z,39.71
2019-04-10T19:35:55.188Z,40.12
2019-04-10T19:38:31.608Z,40.28
2019-04-10T19:41:20.003Z,40.17
2019-04-10T19:43:44.745Z,40.59
2019-04-10T19:46:21.544Z,40.65
2019-04-10T19:48:57.697Z,40.63
2019-04-10T19:51:34.301Z,40.97
2019-04-10T19:54:11.239Z,41.09
2019-04-10T19:56:46.720Z,41.25
2019-04-10T19:59:23.303Z,41.37
2019-04-10T20:01:58.458Z,41.88
2019-04-10T20:04:34.656Z,42.09
2019-04-10T20:07:11.145Z,42.19
2019-04-10T20:09:46.938Z,42.41
2019-04-10T20:12:21.962Z,42.46
2019-04-10T20:14:57.360Z,42.67
2019-04-10T20:17:32.569Z,43.17
2019-04-10T20:20:09.099Z,43.17
2019-04-10T20:22:44.138Z,43.45
2019-04-10T20:25:19.592Z,43.89
2019-04-10T20:27:54.630Z,43.96
2019-04-10T20:30:32.767Z,44.11
2019-04-10T20:33:08.339Z,44.31
2019-04-10T20:35:44.559Z,43.92
2019-04-10T20:38:20.774Z,44.04
2019-04-10T20:40:56.182Z,44.02
2019-04-10T20:43:32.583Z,43.89
2019-04-10T20:46:08.245Z,43.53
2019-04-10T20:48:43.238Z,43.79
2019-04-10T20:51:19.256Z,43.70
2019-04-10T20:53:54.352Z,43.67
2019-04-10T20:56:30.546Z,43.63
2019-04-10T20:59:05.696Z,43.54
2019-04-10T21:01:41.469Z,43.67
2019-04-10T21:04:17.041Z,43.81
2019-04-10T21:06:54.382Z,43.83
2019-04-10T21:09:29.867Z,44.17
2019-04-10T21:12:09.755Z,44.38
2019-04-10T21:14:42.243Z,44.38
2019-04-10T21:17:17.512Z,44.73
2019-04-10T21:19:53.689Z,45.27
2019-04-10T21:22:29.102Z,45.28
2019-04-10T21:25:06.175Z,45.41
2019-04-10T21:27:42.552Z,45.59
2019-04-10T21:30:24.222Z,45.71
2019-04-10T21:33:16.075Z,45.79
2019-04-10T21:35:51.936Z,45.72
2019-04-10T21:38:27.934Z,46.08
2019-04-10T21:41:05.692Z,46.03
2019-04-10T21:43:42.962Z,46.36
2019-04-10T21:46:19.951Z,46.14
2019-04-10T21:48:55.376Z,46.44
2019-04-10T21:51:30.624Z,46.27
2019-04-10T21:54:06.402Z,46.04
2019-04-10T21:56:43.015Z,45.98
2019-04-10T21:59:18.375Z,46.19
2019-04-10T22:01:54.934Z,45.79
2019-04-10T22:04:30.899Z,46.04
2019-04-10T22:07:11.868Z,45.71
2019-04-10T22:10:05.985Z,45.36
2019-04-10T22:12:46.639Z,45.49
2019-04-10T22:15:37.214Z,45.63
2019-04-10T22:18:14.879Z,45.76
2019-04-10T22:20:50.146Z,45.78
2019-04-10T22:23:26.518Z,46.11
2019-04-10T22:26:02.934Z,46.19
2019-04-10T22:28:37.918Z,46.14
2019-04-10T22:31:13.737Z,46.35
2019-04-10T22:33:49.274Z,46.58
2019-04-10T22:36:24.852Z,46.68
2019-04-10T22:39:00.629Z,46.73
2019-04-10T22:41:38.479Z,46.80
2019-04-10T22:44:13.890Z,47.20
2019-04-10T22:46:50.236Z,47.35
2019-04-10T22:49:26.614Z,47.89
2019-04-10T22:52:02.627Z,47.44
2019-04-10T22:54:38.744Z,47.46
2019-04-10T22:57:15.041Z,47.75
2019-04-10T22:59:51.128Z,47.74
2019-04-10T23:02:27.747Z,47.99
2019-04-10T23:05:04.031Z,48.41
2019-04-10T23:07:39.448Z,48.51
2019-04-10T23:10:15.609Z,48.86
2019-04-10T23:12:59.351Z,49.29
2019-04-10T23:15:28.327Z,49.37
2019-04-10T23:18:03.687Z,49.81
2019-04-10T23:20:39.748Z,50.32
2019-04-10T23:23:16.832Z,50.37
2019-04-10T23:25:53.062Z,50.69
2019-04-10T23:28:29.040Z,51.00
2019-04-10T23:31:04.094Z,51.02
2019-04-10T23:33:39.904Z,51.53
2019-04-10T23:36:16.059Z,52.12
2019-04-10T23:38:52.108Z,51.97
2019-04-10T23:41:27.605Z,52.18
2019-04-10T23:44:02.626Z,52.31
2019-04-10T23:46:38.896Z,52.25
2019-04-10T23:49:15.889Z,52.79
2019-04-10T23:51:51.633Z,53.01
2019-04-10T23:54:27.701Z,52.92
2019-04-10T23:57:03.151Z,53.25
2019-04-10T23:59:39.313Z,53.81
